createdAt,value
2018-12-11T00:03:03.429Z,94988.9
2018-12-11T00:08:01.120Z,95000.5
2018-12-11T00:12:58.510Z,94996.2
2018-12-11T00:17:55.893Z,94998.7
2018-12-11T00:22:53.442Z,95005
2018-12-11T00:27:50.825Z,95016.1
2018-12-11T00:32:48.384Z,95015.9
2018-12-11T00:37:45.740Z,95020.4
2018-12-11T00:42:43.387Z,95021.7
2018-12-11T00:47:40.963Z,95018.9
2018-12-11T00:52:38.434Z,95011.1
2018-12-11T00:57:35.930Z,95005.9
2018-12-11T01:02:33.764Z,94981.6
2018-12-11T01:07:31.270Z,95003.5
2018-12-11T01:12:28.896Z,94996.7
2018-12-11T01:17:26.453Z,95004.2
2018-12-11T01:22:23.872Z,95004.9
2018-12-11T01:27:21.335Z,95006.6
2018-12-11T01:32:18.718Z,95006.3
2018-12-11T01:37:16.066Z,95004.5
2018-12-11T01:42:13.464Z,95000.7
2018-12-11T01:47:11.036Z,94993.6
2018-12-11T01:52:08.502Z,94996.7
2018-12-11T01:57:06.266Z,94993.2
2018-12-11T02:02:03.706Z,94993.9
2018-12-11T02:07:00.968Z,94988.7
2018-12-11T02:11:58.465Z,94988
2018-12-11T02:16:56.003Z,94988.8
2018-12-11T02:21:53.459Z,94987.5
2018-12-11T02:26:50.675Z,94995.9
2018-12-11T02:31:48.448Z,94994.9
2018-12-11T02:36:45.885Z,94989.7
2018-12-11T02:41:43.173Z,94984.6
2018-12-11T02:46:40.751Z,94994.4
2018-12-11T02:51:38.203Z,94988.1
2018-12-11T02:56:36.039Z,94982.7
2018-12-11T03:01:33.613Z,94987.1
2018-12-11T03:06:31.145Z,94986.4
2018-12-11T03:11:28.450Z,94979.7
2018-12-11T03:16:25.700Z,94986
2018-12-11T03:21:22.736Z,94987.5
2018-12-11T03:26:20.152Z,94990.1
2018-12-11T03:31:17.439Z,94995.1
2018-12-11T03:36:14.898Z,94996.8
2018-12-11T03:41:12.476Z,94999.6
2018-12-11T03:46:09.865Z,95000.6
2018-12-11T03:51:07.248Z,95008.3
2018-12-11T03:56:05.047Z,95017.5
2018-12-11T04:01:02.472Z,95019.4
2018-12-11T04:05:59.850Z,95012.5
2018-12-11T04:10:56.937Z,95019.9
2018-12-11T04:15:54.495Z,95013.4
2018-12-11T04:20:51.811Z,95024.6
2018-12-11T04:25:49.515Z,95023.6
2018-12-11T04:30:46.926Z,95038.8
2018-12-11T04:35:44.831Z,95042.9
2018-12-11T04:40:41.860Z,95043.2
2018-12-11T04:45:39.511Z,95050
2018-12-11T04:50:36.888Z,95057.8
2018-12-11T04:55:34.158Z,95061.6
2018-12-11T05:00:31.905Z,95067.1
2018-12-11T05:05:29.359Z,95066.6
2018-12-11T05:10:26.596Z,95069.7
2018-12-11T05:15:23.912Z,95068.9
2018-12-11T05:20:21.354Z,95072.4
2018-12-11T05:25:19.024Z,95077.7
2018-12-11T05:30:16.423Z,95072.2
2018-12-11T05:35:13.938Z,95086.1
2018-12-11T05:40:11.201Z,95094.5
2018-12-11T05:45:08.577Z,95108.3
2018-12-11T05:50:05.846Z,95108.8
2018-12-11T05:55:03.266Z,95128.5
2018-12-11T06:00:00.602Z,95127.7
2018-12-11T06:04:58.122Z,95101.7
2018-12-11T06:09:55.740Z,95127.2
2018-12-11T06:14:53.121Z,95125.6
2018-12-11T06:19:50.065Z,95132.5
2018-12-11T06:24:47.495Z,95137.3
2018-12-11T06:29:45.087Z,95143.1
2018-12-11T06:34:42.178Z,95146.8
2018-12-11T06:39:39.552Z,95152
2018-12-11T06:44:36.907Z,95162.4
2018-12-11T06:49:34.321Z,95162.4
2018-12-11T06:54:32.119Z,95172.1
2018-12-11T06:59:28.303Z,95177.4
2018-12-11T07:04:25.831Z,95184.3
2018-12-11T07:09:22.907Z,95178.6
2018-12-11T07:14:20.392Z,95185.8
2018-12-11T07:19:17.723Z,95197.1
2018-12-11T07:24:15.152Z,95204
2018-12-11T07:29:12.429Z,95204.7
2018-12-11T07:34:10.228Z,95210.1
2018-12-11T07:39:07.746Z,95215
2018-12-11T07:44:05.090Z,95130.4
2018-12-11T07:49:02.034Z,95217
2018-12-11T07:53:59.875Z,95222.4
2018-12-11T07:58:57.132Z,95228.1
2018-12-11T08:03:54.512Z,95231.9
2018-12-11T08:08:51.683Z,95243.6
2018-12-11T08:13:49.046Z,95232.3
2018-12-11T08:18:45.866Z,95241.2
2018-12-11T08:23:43.488Z,95228.7
2018-12-11T08:28:40.281Z,95242.5
2018-12-11T08:33:37.607Z,95233.5
2018-12-11T08:38:35.494Z,95236.9
2018-12-11T08:43:32.817Z,95364.8
2018-12-11T08:48:29.616Z,95237.6
2018-12-11T08:53:27.306Z,95231.6
2018-12-11T08:58:24.772Z,95231.5
2018-12-11T09:03:22.327Z,95239.3
2018-12-11T09:08:19.634Z,94847.7
2018-12-11T09:13:17.045Z,95232.8
2018-12-11T09:18:14.498Z,95223.2
2018-12-11T09:23:12.141Z,95228.5
2018-12-11T09:28:11.070Z,95207.4
2018-12-11T09:33:06.823Z,95213.7
2018-12-11T09:38:04.318Z,95167
2018-12-11T09:43:01.670Z,95198.8
2018-12-11T09:47:59.262Z,95208.2
2018-12-11T09:52:56.910Z,95181.3
2018-12-11T09:57:54.396Z,95183.6
2018-12-11T10:02:52.350Z,95185.5
2018-12-11T10:07:49.597Z,95185.7
2018-12-11T10:12:47.102Z,95183
2018-12-11T10:17:43.918Z,95177.4
2018-12-11T10:22:41.175Z,94309
2018-12-11T10:27:38.902Z,95172.1
2018-12-11T10:32:36.350Z,95156.1
2018-12-11T10:37:33.565Z,95165.5
2018-12-11T10:42:31.016Z,95157.3
2018-12-11T10:47:28.891Z,95168.5
2018-12-11T10:52:26.463Z,95161.4
2018-12-11T10:57:24.005Z,95154.7
2018-12-11T11:02:22.262Z,95152.1
2018-12-11T11:07:19.669Z,95155
2018-12-11T11:12:17.113Z,95163.5
2018-12-11T11:17:14.562Z,95159.5
2018-12-11T11:22:11.766Z,95145.1
2018-12-11T11:27:09.262Z,95141.2
2018-12-11T11:32:06.841Z,95157.3
2018-12-11T11:37:04.181Z,95159.9
2018-12-11T11:42:01.453Z,95158.4
2018-12-11T11:46:59.052Z,95163.8
2018-12-11T11:51:56.634Z,95162.9
2018-12-11T11:56:54.250Z,95165.4
2018-12-11T12:01:52.204Z,95185.4
2018-12-11T12:06:49.756Z,95181
2018-12-11T12:11:47.390Z,95183.7
2018-12-11T12:16:44.519Z,95264.5
2018-12-11T12:21:41.599Z,95194.3
2018-12-11T12:26:39.016Z,95197.4
2018-12-11T12:31:36.333Z,95200.2
2018-12-11T12:36:33.690Z,95207.6
2018-12-11T12:41:30.853Z,95210.2
2018-12-11T12:46:28.319Z,95210.4
2018-12-11T12:51:26.159Z,95213.8
2018-12-11T12:56:23.662Z,95216.3
2018-12-11T13:01:21.198Z,95219.1
2018-12-11T13:06:18.188Z,95218.6
2018-12-11T13:11:15.385Z,95215.9
2018-12-11T13:16:12.936Z,95215.8
2018-12-11T13:21:10.082Z,95222.5
2018-12-11T13:26:07.472Z,95229.9
2018-12-11T13:31:04.755Z,95229.3
2018-12-11T13:36:01.881Z,95238
2018-12-11T13:40:59.270Z,95226.5
2018-12-11T13:45:57.125Z,95236.8
2018-12-11T13:50:54.498Z,95236.6
2018-12-11T13:55:51.976Z,95241
2018-12-11T14:00:49.678Z,95232.4
2018-12-11T14:05:47.250Z,95238.7
2018-12-11T14:10:44.479Z,95236.5
2018-12-11T14:15:41.700Z,95234.3
2018-12-11T14:20:39.313Z,95236.1
2018-12-11T14:25:36.799Z,95237.4
2018-12-11T14:30:34.288Z,95222
2018-12-11T14:35:31.513Z,95257.6
2018-12-11T14:40:28.925Z,95262.1
2018-12-11T14:45:26.290Z,95263.8
2018-12-11T14:50:23.711Z,95272
2018-12-11T14:55:21.219Z,95270.1
2018-12-11T15:00:18.672Z,95279
2018-12-11T15:05:15.863Z,95264.8
2018-12-11T15:10:13.837Z,95189.9
2018-12-11T15:15:11.593Z,95275.1
2018-12-11T15:20:09.357Z,95269.9
2018-12-11T15:25:06.753Z,95274.6
2018-12-11T15:30:03.772Z,95244.4
2018-12-11T15:35:00.689Z,95267.1
2018-12-11T15:39:57.990Z,95269.8
2018-12-11T15:44:55.458Z,95277.9
2018-12-11T15:49:53.046Z,95285.4
2018-12-11T15:54:50.778Z,95291
2018-12-11T15:59:48.110Z,95290.2
2018-12-11T16:04:45.513Z,95266.9
2018-12-11T16:09:43.027Z,95294.3
2018-12-11T16:14:40.245Z,95304.8
2018-12-11T16:19:37.647Z,95315.7
2018-12-11T16:24:34.698Z,95314.1
2018-12-11T16:29:32.106Z,95321.2
2018-12-11T16:34:29.599Z,95321.4
2018-12-11T16:39:27.192Z,95324.6
2018-12-11T16:44:24.795Z,95316.1
2018-12-11T16:49:22.087Z,95318.4
2018-12-11T16:54:19.740Z,95320.9
2018-12-11T16:59:17.438Z,95333.9
2018-12-11T17:04:14.799Z,95338.8
2018-12-11T17:09:12.443Z,95346.3
2018-12-11T17:14:09.895Z,95338.6
2018-12-11T17:19:07.597Z,95340.3
2018-12-11T17:24:05.053Z,95339.5
2018-12-11T17:29:03.111Z,95339.1
2018-12-11T17:34:00.533Z,95339.7
2018-12-11T17:38:57.679Z,95344.2
2018-12-11T17:43:55.141Z,95341.9
2018-12-11T17:48:52.488Z,95345.2
2018-12-11T17:53:49.942Z,95352.5
2018-12-11T17:58:47.601Z,95350.8
2018-12-11T18:03:45.246Z,95362.2
2018-12-11T18:08:42.498Z,95368.5
2018-12-11T18:13:39.963Z,95378.2
2018-12-11T18:18:37.401Z,95381.9
2018-12-11T18:23:34.955Z,95363.2
2018-12-11T18:28:32.995Z,95393.9
2018-12-11T18:33:30.462Z,95394.3
2018-12-11T18:38:28.048Z,95386
2018-12-11T18:43:25.463Z,95391.6
2018-12-11T18:48:23.254Z,95389.8
2018-12-11T18:53:21.050Z,95398
2018-12-11T18:58:18.551Z,95392.7
2018-12-11T19:03:15.540Z,95386
2018-12-11T19:08:12.408Z,95387.9
2018-12-11T19:13:09.802Z,95386.6
2018-12-11T19:18:07.229Z,95395.5
2018-12-11T19:23:04.861Z,95389.2
2018-12-11T19:28:02.073Z,95393.5
2018-12-11T19:32:59.493Z,95386.4
2018-12-11T19:37:56.833Z,95355.3
2018-12-11T19:42:54.394Z,95394.6
2018-12-11T19:47:52.647Z,95387.8
2018-12-11T19:52:49.456Z,95395
2018-12-11T19:57:46.834Z,95394.3
2018-12-11T20:02:44.211Z,95401.8
2018-12-11T20:07:41.490Z,95401.1
2018-12-11T20:12:38.969Z,95406.9
2018-12-11T20:17:36.386Z,95401
2018-12-11T20:22:33.874Z,95403.1
2018-12-11T20:27:31.355Z,95401.8
2018-12-11T20:32:28.568Z,95404.8
2018-12-11T20:37:26.028Z,95403.1
2018-12-11T20:42:23.400Z,95408.6
2018-12-11T20:47:20.916Z,95409.8
2018-12-11T20:52:18.182Z,95409.4
2018-12-11T20:57:15.733Z,95414.4
2018-12-11T21:02:13.128Z,95419.9
2018-12-11T21:07:10.768Z,95422.8
2018-12-11T21:12:08.181Z,95457.4
2018-12-11T21:17:05.550Z,95422.2
2018-12-11T21:22:03.257Z,95427.3
2018-12-11T21:27:00.753Z,95426.7
2018-12-11T21:31:58.139Z,95424.1
2018-12-11T21:36:55.698Z,95423.5
2018-12-11T21:41:52.794Z,95423.5
2018-12-11T21:46:50.117Z,95425.6
2018-12-11T21:51:47.917Z,95422
2018-12-11T21:56:45.542Z,95420.8
2018-12-11T22:01:43.269Z,95420.2
2018-12-11T22:06:40.758Z,95416.4
2018-12-11T22:11:38.242Z,95420.1
2018-12-11T22:16:35.785Z,95425.3
2018-12-11T22:21:33.376Z,95422.1
2018-12-11T22:26:30.782Z,95419.2
2018-12-11T22:31:28.249Z,95419.3
2018-12-11T22:36:25.646Z,95414.3
2018-12-11T22:41:23.130Z,95415.1
2018-12-11T22:46:20.439Z,95415.3
2018-12-11T22:51:17.854Z,95411.4
2018-12-11T22:56:15.341Z,95403.2
2018-12-11T23:01:12.896Z,95400.9
2018-12-11T23:06:10.363Z,95401.9
2018-12-11T23:11:07.989Z,95401.5
2018-12-11T23:16:05.665Z,95392.3
2018-12-11T23:21:03.344Z,95399.9
2018-12-11T23:26:01.418Z,95414.4
2018-12-11T23:30:58.833Z,95410.5
2018-12-11T23:35:56.551Z,95411.9
2018-12-11T23:40:54.193Z,95417.8
2018-12-11T23:45:51.909Z,95414.5
2018-12-11T23:50:49.545Z,95420.5
2018-12-11T23:55:47.492Z,95419.6
